sensor_id;sensor_type;location;lat;lon;timestamp;pressure;altitude;pressure_sealevel;temperature
74485;BMP280;62942;52.462;10.846;2022-10-17T00:00:07;101290;;;
74485;BMP280;62942;52.462;10.846;2022-10-17T00:01:17;101280;;;
74485;BMP280;62942;52.462;10.846;2022-10-17T00:02:27;101280;;;
74485;BMP280;62942;52.462;10.846;2022-10-17T00:03:37;101280;;;
74485;BMP280;62942;52.462;10.846;2022-10-17T00:04:47;101280;;;
74485;BMP280;62942;52.462;10.846;2022-10-17T00:05:47;101280;;;
74485;BMP280;62942;52.462;10.846;2022-10-17T00:06:57;101280;;;
74485;BMP280;62942;52.462;10.846;2022-10-17T00:08:07;101280;;;
74485;BMP280;62942;52.462;10.846;2022-10-17T00:09:17;101290;;;
74485;BMP280;62942;52.462;10.846;2022-10-17T00:10:17;101280;;;
74485;BMP280;62942;52.462;10.846;2022-10-17T00:11:27;101280;;;
74485;BMP280;62942;52.462;10.846;2022-10-17T00:12:27;101280;;;
74485;BMP280;62942;52.462;10.846;2022-10-17T00:13:37;101280;;;
74485;BMP280;62942;52.462;10.846;2022-10-17T00:14:37;101270;;;
74485;BMP280;62942;52.462;10.846;2022-10-17T00:15:47;101270;;;
74485;BMP280;62942;52.462;10.846;2022-10-17T00:16:57;101290;;;
74485;BMP280;62942;52.462;10.846;2022-10-17T00:18:07;101290;;;
74485;BMP280;62942;52.462;10.846;2022-10-17T00:19:07;101300;;;
74485;BMP280;62942;52.462;10.846;2022-10-17T00:20:17;101300;;;
74485;BMP280;62942;52.462;10.846;2022-10-17T00:21:17;101300;;;
74485;BMP280;62942;52.462;10.846;2022-10-17T00:22:27;101310;;;
74485;BMP280;62942;52.462;10.846;2022-10-17T00:23:37;101300;;;
74485;BMP280;62942;52.462;10.846;2022-10-17T00:24:37;101310;;;
74485;BMP280;62942;52.462;10.846;2022-10-17T00:25:47;101310;;;
74485;BMP280;62942;52.462;10.846;2022-10-17T00:26:57;101310;;;
74485;BMP280;62942;52.462;10.846;2022-10-17T00:27:57;101310;;;
74485;BMP280;62942;52.462;10.846;2022-10-17T00:29:07;101310;;;
74485;BMP280;62942;52.462;10.846;2022-10-17T00:30:17;101310;;;
74485;BMP280;62942;52.462;10.846;2022-10-17T00:31:17;101310;;;
74485;BMP280;62942;52.462;10.846;2022-10-17T00:32:27;101310;;;
74485;BMP280;62942;52.462;10.846;2022-10-17T00:33:37;101310;;;
74485;BMP280;62942;52.462;10.846;2022-10-17T00:34:37;101310;;;
74485;BMP280;62942;52.462;10.846;2022-10-17T00:35:47;101310;;;
74485;BMP280;62942;52.462;10.846;2022-10-17T00:36:47;101300;;;
74485;BMP280;62942;52.462;10.846;2022-10-17T00:37:57;101300;;;
74485;BMP280;62942;52.462;10.846;2022-10-17T00:39:07;101290;;;
74485;BMP280;62942;52.462;10.846;2022-10-17T00:40:17;101290;;;
74485;BMP280;62942;52.462;10.846;2022-10-17T00:41:18;101280;;;
74485;BMP280;62942;52.462;10.846;2022-10-17T00:42:27;101280;;;
74485;BMP280;62942;52.462;10.846;2022-10-17T00:43:54;101280;;;
74485;BMP280;62942;52.462;10.846;2022-10-17T00:45:14;101280;;;
74485;BMP280;62942;52.462;10.846;2022-10-17T00:45:47;101280;;;
74485;BMP280;62942;52.462;10.846;2022-10-17T00:46:57;101280;;;
74485;BMP280;62942;52.462;10.846;2022-10-17T00:47:57;101290;;;
74485;BMP280;62942;52.462;10.846;2022-10-17T00:49:07;101280;;;
74485;BMP280;62942;52.462;10.846;2022-10-17T00:50:07;101290;;;
74485;BMP280;62942;52.462;10.846;2022-10-17T00:51:07;101280;;;
74485;BMP280;62942;52.462;10.846;2022-10-17T00:52:18;101290;;;
74485;BMP280;62942;52.462;10.846;2022-10-17T00:53:17;101280;;;
74485;BMP280;62942;52.462;10.846;2022-10-17T00:54:18;101280;;;
74485;BMP280;62942;52.462;10.846;2022-10-17T00:55:28;101280;;;
74485;BMP280;62942;52.462;10.846;2022-10-17T00:56:37;101270;;;
74485;BMP280;62942;52.462;10.846;2022-10-17T00:57:37;101270;;;
74485;BMP280;62942;52.462;10.846;2022-10-17T00:58:47;101280;;;
74485;BMP280;62942;52.462;10.846;2022-10-17T00:59:57;101270;;;
74485;BMP280;62942;52.462;10.846;2022-10-17T01:01:07;101260;;;
74485;BMP280;62942;52.462;10.846;2022-10-17T01:02:07;101260;;;
74485;BMP280;62942;52.462;10.846;2022-10-17T01:03:17;101270;;;
74485;BMP280;62942;52.462;10.846;2022-10-17T01:04:27;101280;;;
74485;BMP280;62942;52.462;10.846;2022-10-17T01:05:37;101270;;;
74485;BMP280;62942;52.462;10.846;2022-10-17T01:06:47;101280;;;
74485;BMP280;62942;52.462;10.846;2022-10-17T01:07:57;101270;;;
74485;BMP280;62942;52.462;10.846;2022-10-17T01:09:07;101270;;;
74485;BMP280;62942;52.462;10.846;2022-10-17T01:10:17;101270;;;
74485;BMP280;62942;52.462;10.846;2022-10-17T01:11:29;101260;;;
74485;BMP280;62942;52.462;10.846;2022-10-17T01:12:27;101260;;;
74485;BMP280;62942;52.462;10.846;2022-10-17T01:13:29;101250;;;
74485;BMP280;62942;52.462;10.846;2022-10-17T01:14:38;101270;;;
74485;BMP280;62942;52.462;10.846;2022-10-17T01:15:40;101260;;;
74485;BMP280;62942;52.462;10.846;2022-10-17T01:16:48;101260;;;
74485;BMP280;62942;52.462;10.846;2022-10-17T01:18:00;101260;;;
74485;BMP280;62942;52.462;10.846;2022-10-17T01:19:11;101260;;;
74485;BMP280;62942;52.462;10.846;2022-10-17T01:21:20;101260;;;
74485;BMP280;62942;52.462;10.846;2022-10-17T01:22:27;101260;;;
74485;BMP280;62942;52.462;10.846;2022-10-17T01:23:42;101260;;;
74485;BMP280;62942;52.462;10.846;2022-10-17T01:24:48;101260;;;
74485;BMP280;62942;52.462;10.846;2022-10-17T01:25:49;101260;;;
74485;BMP280;62942;52.462;10.846;2022-10-17T01:26:59;101250;;;
74485;BMP280;62942;52.462;10.846;2022-10-17T01:28:11;101250;;;
74485;BMP280;62942;52.462;10.846;2022-10-17T01:29:21;101240;;;
74485;BMP280;62942;52.462;10.846;2022-10-17T01:30:23;101240;;;
74485;BMP280;62942;52.462;10.846;2022-10-17T01:31:28;101240;;;
74485;BMP280;62942;52.462;10.846;2022-10-17T01:32:37;101230;;;
74485;BMP280;62942;52.462;10.846;2022-10-17T01:33:43;101240;;;
74485;BMP280;62942;52.462;10.846;2022-10-17T01:34:48;101230;;;
74485;BMP280;62942;52.462;10.846;2022-10-17T01:35:47;101240;;;
74485;BMP280;62942;52.462;10.846;2022-10-17T01:36:58;101220;;;
74485;BMP280;62942;52.462;10.846;2022-10-17T01:37:58;101230;;;
74485;BMP280;62942;52.462;10.846;2022-10-17T01:39:09;101230;;;
74485;BMP280;62942;52.462;10.846;2022-10-17T01:40:19;101230;;;
74485;BMP280;62942;52.462;10.846;2022-10-17T01:41:29;101230;;;
74485;BMP280;62942;52.462;10.846;2022-10-17T01:42:37;101230;;;
74485;BMP280;62942;52.462;10.846;2022-10-17T01:43:38;101240;;;
74485;BMP280;62942;52.462;10.846;2022-10-17T01:44:47;101240;;;
74485;BMP280;62942;52.462;10.846;2022-10-17T01:45:48;101230;;;
74485;BMP280;62942;52.462;10.846;2022-10-17T01:46:57;101220;;;
74485;BMP280;62942;52.462;10.846;2022-10-17T01:47:57;101220;;;
74485;BMP280;62942;52.462;10.846;2022-10-17T01:49:07;101220;;;
74485;BMP280;62942;52.462;10.846;2022-10-17T01:50:17;101210;;;
74485;BMP280;62942;52.462;10.846;2022-10-17T01:51:27;101210;;;
74485;BMP280;62942;52.462;10.846;2022-10-17T01:52:28;101220;;;
74485;BMP280;62942;52.462;10.846;2022-10-17T01:53:38;101230;;;
74485;BMP280;62942;52.462;10.846;2022-10-17T01:54:47;101230;;;
74485;BMP280;62942;52.462;10.846;2022-10-17T01:55:58;101230;;;
74485;BMP280;62942;52.462;10.846;2022-10-17T01:57:08;101230;;;
74485;BMP280;62942;52.462;10.846;2022-10-17T01:58:18;101230;;;
74485;BMP280;62942;52.462;10.846;2022-10-17T01:59:18;101230;;;
74485;BMP280;62942;52.462;10.846;2022-10-17T02:00:26;101230;;;
74485;BMP280;62942;52.462;10.846;2022-10-17T02:01:27;101230;;;
74485;BMP280;62942;52.462;10.846;2022-10-17T02:02:36;101230;;;
74485;BMP280;62942;52.462;10.846;2022-10-17T02:03:47;101220;;;
74485;BMP280;62942;52.462;10.846;2022-10-17T02:04:56;101230;;;
74485;BMP280;62942;52.462;10.846;2022-10-17T02:05:56;101230;;;
74485;BMP280;62942;52.462;10.846;2022-10-17T02:07:07;101210;;;
74485;BMP280;62942;52.462;10.846;2022-10-17T02:08:24;101220;;;
74485;BMP280;62942;52.462;10.846;2022-10-17T02:09:26;101220;;;
74485;BMP280;62942;52.462;10.846;2022-10-17T02:10:37;101220;;;
74485;BMP280;62942;52.462;10.846;2022-10-17T02:11:36;101210;;;
74485;BMP280;62942;52.462;10.846;2022-10-17T02:12:40;101210;;;
74485;BMP280;62942;52.462;10.846;2022-10-17T02:13:50;101210;;;
74485;BMP280;62942;52.462;10.846;2022-10-17T02:14:50;101210;;;
74485;BMP280;62942;52.462;10.846;2022-10-17T02:15:53;101210;;;
74485;BMP280;62942;52.462;10.846;2022-10-17T02:16:58;101210;;;
74485;BMP280;62942;52.462;10.846;2022-10-17T02:17:58;101210;;;
74485;BMP280;62942;52.462;10.846;2022-10-17T02:19:11;101200;;;
74485;BMP280;62942;52.462;10.846;2022-10-17T02:20:19;101200;;;
74485;BMP280;62942;52.462;10.846;2022-10-17T02:21:27;101200;;;
74485;BMP280;62942;52.462;10.846;2022-10-17T02:22:37;101210;;;
74485;BMP280;62942;52.462;10.846;2022-10-17T02:23:37;101200;;;
74485;BMP280;62942;52.462;10.846;2022-10-17T02:24:48;101210;;;
74485;BMP280;62942;52.462;10.846;2022-10-17T02:25:59;101200;;;
74485;BMP280;62942;52.462;10.846;2022-10-17T02:27:07;101200;;;
74485;BMP280;62942;52.462;10.846;2022-10-17T02:28:18;101200;;;
74485;BMP280;62942;52.462;10.846;2022-10-17T02:29:27;101200;;;
74485;BMP280;62942;52.462;10.846;2022-10-17T02:30:38;101200;;;
74485;BMP280;62942;52.462;10.846;2022-10-17T02:31:47;101200;;;
74485;BMP280;62942;52.462;10.846;2022-10-17T02:32:48;101210;;;
74485;BMP280;62942;52.462;10.846;2022-10-17T02:33:57;101210;;;
74485;BMP280;62942;52.462;10.846;2022-10-17T02:35:07;101210;;;
74485;BMP280;62942;52.462;10.846;2022-10-17T02:36:18;101200;;;
74485;BMP280;62942;52.462;10.846;2022-10-17T02:37:27;101200;;;
74485;BMP280;62942;52.462;10.846;2022-10-17T02:38:26;101210;;;
74485;BMP280;62942;52.462;10.846;2022-10-17T02:39:36;101200;;;
74485;BMP280;62942;52.462;10.846;2022-10-17T02:40:46;101200;;;
74485;BMP280;62942;52.462;10.846;2022-10-17T02:41:57;101200;;;
74485;BMP280;62942;52.462;10.846;2022-10-17T02:42:57;101200;;;
74485;BMP280;62942;52.462;10.846;2022-10-17T02:44:06;101200;;;
74485;BMP280;62942;52.462;10.846;2022-10-17T02:45:17;101200;;;
74485;BMP280;62942;52.462;10.846;2022-10-17T02:46:26;101200;;;
74485;BMP280;62942;52.462;10.846;2022-10-17T02:47:27;101190;;;
74485;BMP280;62942;52.462;10.846;2022-10-17T02:48:37;101200;;;
74485;BMP280;62942;52.462;10.846;2022-10-17T02:49:49;101200;;;
74485;BMP280;62942;52.462;10.846;2022-10-17T02:50:57;101200;;;
74485;BMP280;62942;52.462;10.846;2022-10-17T02:52:07;101200;;;
74485;BMP280;62942;52.462;10.846;2022-10-17T02:53:19;101200;;;
74485;BMP280;62942;52.462;10.846;2022-10-17T02:54:17;101180;;;
74485;BMP280;62942;52.462;10.846;2022-10-17T02:55:28;101190;;;
74485;BMP280;62942;52.462;10.846;2022-10-17T02:56:38;101200;;;
74485;BMP280;62942;52.462;10.846;2022-10-17T02:57:47;101190;;;
74485;BMP280;62942;52.462;10.846;2022-10-17T02:58:57;101190;;;
74485;BMP280;62942;52.462;10.846;2022-10-17T02:59:57;101190;;;
74485;BMP280;62942;52.462;10.846;2022-10-17T03:01:06;101200;;;
74485;BMP280;62942;52.462;10.846;2022-10-17T03:02:16;101190;;;
74485;BMP280;62942;52.462;10.846;2022-10-17T03:03:28;101200;;;
74485;BMP280;62942;52.462;10.846;2022-10-17T03:04:36;101190;;;
74485;BMP280;62942;52.462;10.846;2022-10-17T03:05:46;101200;;;
74485;BMP280;62942;52.462;10.846;2022-10-17T03:06:56;101190;;;
74485;BMP280;62942;52.462;10.846;2022-10-17T03:07:56;101190;;;
74485;BMP280;62942;52.462;10.846;2022-10-17T03:09:07;101190;;;
74485;BMP280;62942;52.462;10.846;2022-10-17T03:10:17;101190;;;
74485;BMP280;62942;52.462;10.846;2022-10-17T03:11:26;101190;;;
74485;BMP280;62942;52.462;10.846;2022-10-17T03:12:36;101190;;;
74485;BMP280;62942;52.462;10.846;2022-10-17T03:13:46;101190;;;
74485;BMP280;62942;52.462;10.846;2022-10-17T03:14:56;101190;;;
74485;BMP280;62942;52.462;10.846;2022-10-17T03:16:06;101190;;;
74485;BMP280;62942;52.462;10.846;2022-10-17T03:17:16;101200;;;
74485;BMP280;62942;52.462;10.846;2022-10-17T03:18:26;101200;;;
74485;BMP280;62942;52.462;10.846;2022-10-17T03:19:36;101190;;;
74485;BMP280;62942;52.462;10.846;2022-10-17T03:20:36;101190;;;
74485;BMP280;62942;52.462;10.846;2022-10-17T03:21:37;101190;;;
74485;BMP280;62942;52.462;10.846;2022-10-17T03:22:46;101190;;;
74485;BMP280;62942;52.462;10.846;2022-10-17T03:23:56;101190;;;
74485;BMP280;62942;52.462;10.846;2022-10-17T03:25:07;101200;;;
74485;BMP280;62942;52.462;10.846;2022-10-17T03:26:16;101200;;;
74485;BMP280;62942;52.462;10.846;2022-10-17T03:27:26;101200;;;
74485;BMP280;62942;52.462;10.846;2022-10-17T03:28:36;101190;;;
74485;BMP280;62942;52.462;10.846;2022-10-17T03:29:36;101200;;;
74485;BMP280;62942;52.462;10.846;2022-10-17T03:30:46;101200;;;
74485;BMP280;62942;52.462;10.846;2022-10-17T03:31:56;101190;;;
74485;BMP280;62942;52.462;10.846;2022-10-17T03:33:06;101190;;;
74485;BMP280;62942;52.462;10.846;2022-10-17T03:34:16;101190;;;
74485;BMP280;62942;52.462;10.846;2022-10-17T03:35:16;101190;;;
74485;BMP280;62942;52.462;10.846;2022-10-17T03:36:17;101190;;;
74485;BMP280;62942;52.462;10.846;2022-10-17T03:37:26;101190;;;
74485;BMP280;62942;52.462;10.846;2022-10-17T03:38:36;101190;;;
74485;BMP280;62942;52.462;10.846;2022-10-17T03:39:36;101200;;;
74485;BMP280;62942;52.462;10.846;2022-10-17T03:40:53;101190;;;
74485;BMP280;62942;52.462;10.846;2022-10-17T03:41:56;101190;;;
74485;BMP280;62942;52.462;10.846;2022-10-17T03:42:56;101190;;;
74485;BMP280;62942;52.462;10.846;2022-10-17T03:44:06;101190;;;
74485;BMP280;62942;52.462;10.846;2022-10-17T03:45:16;101190;;;
74485;BMP280;62942;52.462;10.846;2022-10-17T03:46:26;101200;;;
74485;BMP280;62942;52.462;10.846;2022-10-17T03:47:36;101190;;;
74485;BMP280;62942;52.462;10.846;2022-10-17T03:48:46;101200;;;
74485;BMP280;62942;52.462;10.846;2022-10-17T03:49:56;101200;;;
74485;BMP280;62942;52.462;10.846;2022-10-17T03:50:57;101200;;;
74485;BMP280;62942;52.462;10.846;2022-10-17T03:52:09;101200;;;
74485;BMP280;62942;52.462;10.846;2022-10-17T03:53:16;101210;;;
74485;BMP280;62942;52.462;10.846;2022-10-17T03:54:26;101200;;;
74485;BMP280;62942;52.462;10.846;2022-10-17T03:55:36;101200;;;
74485;BMP280;62942;52.462;10.846;2022-10-17T03:56:36;101200;;;
74485;BMP280;62942;52.462;10.846;2022-10-17T03:57:46;101200;;;
74485;BMP280;62942;52.462;10.846;2022-10-17T03:58:56;101190;;;
74485;BMP280;62942;52.462;10.846;2022-10-17T04:00:07;101190;;;
74485;BMP280;62942;52.462;10.846;2022-10-17T04:01:17;101190;;;
74485;BMP280;62942;52.462;10.846;2022-10-17T04:02:16;101190;;;
74485;BMP280;62942;52.462;10.846;2022-10-17T04:03:26;101190;;;
74485;BMP280;62942;52.462;10.846;2022-10-17T04:04:26;101190;;;
74485;BMP280;62942;52.462;10.846;2022-10-17T04:05:36;101190;;;
74485;BMP280;62942;52.462;10.846;2022-10-17T04:06:46;101190;;;
74485;BMP280;62942;52.462;10.846;2022-10-17T04:07:56;101200;;;
74485;BMP280;62942;52.462;10.846;2022-10-17T04:09:07;101190;;;
74485;BMP280;62942;52.462;10.846;2022-10-17T04:10:16;101200;;;
74485;BMP280;62942;52.462;10.846;2022-10-17T04:11:26;101200;;;
74485;BMP280;62942;52.462;10.846;2022-10-17T04:12:26;101190;;;
74485;BMP280;62942;52.462;10.846;2022-10-17T04:13:36;101200;;;
74485;BMP280;62942;52.462;10.846;2022-10-17T04:14:46;101190;;;
74485;BMP280;62942;52.462;10.846;2022-10-17T04:16:00;101190;;;
74485;BMP280;62942;52.462;10.846;2022-10-17T04:16:56;101190;;;
74485;BMP280;62942;52.462;10.846;2022-10-17T04:18:06;101190;;;
74485;BMP280;62942;52.462;10.846;2022-10-17T04:19:16;101200;;;
74485;BMP280;62942;52.462;10.846;2022-10-17T04:20:26;101200;;;
74485;BMP280;62942;52.462;10.846;2022-10-17T04:21:27;101200;;;
74485;BMP280;62942;52.462;10.846;2022-10-17T04:22:36;101200;;;
74485;BMP280;62942;52.462;10.846;2022-10-17T04:23:46;101200;;;
74485;BMP280;62942;52.462;10.846;2022-10-17T04:24:56;101200;;;
74485;BMP280;62942;52.462;10.846;2022-10-17T04:26:06;101200;;;
74485;BMP280;62942;52.462;10.846;2022-10-17T04:27:06;101200;;;
74485;BMP280;62942;52.462;10.846;2022-10-17T04:28:16;101200;;;
74485;BMP280;62942;52.462;10.846;2022-10-17T04:29:26;101190;;;
74485;BMP280;62942;52.462;10.846;2022-10-17T04:30:26;101190;;;
74485;BMP280;62942;52.462;10.846;2022-10-17T04:31:36;101190;;;
74485;BMP280;62942;52.462;10.846;2022-10-17T04:32:46;101200;;;
74485;BMP280;62942;52.462;10.846;2022-10-17T04:33:56;101180;;;
74485;BMP280;62942;52.462;10.846;2022-10-17T04:34:56;101190;;;
74485;BMP280;62942;52.462;10.846;2022-10-17T04:36:08;101190;;;
74485;BMP280;62942;52.462;10.846;2022-10-17T04:37:16;101190;;;
74485;BMP280;62942;52.462;10.846;2022-10-17T04:38:16;101180;;;
74485;BMP280;62942;52.462;10.846;2022-10-17T04:39:26;101190;;;
74485;BMP280;62942;52.462;10.846;2022-10-17T04:40:36;101190;;;
74485;BMP280;62942;52.462;10.846;2022-10-17T04:41:36;101190;;;
74485;BMP280;62942;52.462;10.846;2022-10-17T04:42:36;101200;;;
74485;BMP280;62942;52.462;10.846;2022-10-17T04:43:46;101200;;;
74485;BMP280;62942;52.462;10.846;2022-10-17T04:44:56;101200;;;
74485;BMP280;62942;52.462;10.846;2022-10-17T04:46:08;101200;;;
74485;BMP280;62942;52.462;10.846;2022-10-17T04:47:16;101200;;;
74485;BMP280;62942;52.462;10.846;2022-10-17T04:48:16;101200;;;
74485;BMP280;62942;52.462;10.846;2022-10-17T04:49:16;101200;;;
74485;BMP280;62942;52.462;10.846;2022-10-17T04:50:26;101200;;;
74485;BMP280;62942;52.462;10.846;2022-10-17T04:51:36;101200;;;
74485;BMP280;62942;52.462;10.846;2022-10-17T04:52:46;101200;;;
74485;BMP280;62942;52.462;10.846;2022-10-17T04:53:46;101200;;;
74485;BMP280;62942;52.462;10.846;2022-10-17T04:54:56;101200;;;
74485;BMP280;62942;52.462;10.846;2022-10-17T04:55:56;101200;;;
74485;BMP280;62942;52.462;10.846;2022-10-17T04:56:56;101210;;;
74485;BMP280;62942;52.462;10.846;2022-10-17T04:58:06;101210;;;
74485;BMP280;62942;52.462;10.846;2022-10-17T04:59:16;101210;;;
74485;BMP280;62942;52.462;10.846;2022-10-17T05:00:26;101210;;;
74485;BMP280;62942;52.462;10.846;2022-10-17T05:01:36;101210;;;
74485;BMP280;62942;52.462;10.846;2022-10-17T05:02:36;101220;;;
74485;BMP280;62942;52.462;10.846;2022-10-17T05:03:46;101220;;;
74485;BMP280;62942;52.462;10.846;2022-10-17T05:04:56;101220;;;
74485;BMP280;62942;52.462;10.846;2022-10-17T05:06:07;101210;;;
74485;BMP280;62942;52.462;10.846;2022-10-17T05:07:16;101210;;;
74485;BMP280;62942;52.462;10.846;2022-10-17T05:08:26;101220;;;
74485;BMP280;62942;52.462;10.846;2022-10-17T05:09:36;101220;;;
74485;BMP280;62942;52.462;10.846;2022-10-17T05:10:46;101220;;;
74485;BMP280;62942;52.462;10.846;2022-10-17T05:11:56;101210;;;
74485;BMP280;62942;52.462;10.846;2022-10-17T05:13:06;101210;;;
74485;BMP280;62942;52.462;10.846;2022-10-17T05:14:16;101220;;;
74485;BMP280;62942;52.462;10.846;2022-10-17T05:15:26;101210;;;
74485;BMP280;62942;52.462;10.846;2022-10-17T05:16:36;101210;;;
74485;BMP280;62942;52.462;10.846;2022-10-17T05:17:46;101210;;;
74485;BMP280;62942;52.462;10.846;2022-10-17T05:18:57;101210;;;
74485;BMP280;62942;52.462;10.846;2022-10-17T05:20:07;101210;;;
74485;BMP280;62942;52.462;10.846;2022-10-17T05:21:16;101210;;;
74485;BMP280;62942;52.462;10.846;2022-10-17T05:22:16;101200;;;
74485;BMP280;62942;52.462;10.846;2022-10-17T05:23:28;101210;;;
74485;BMP280;62942;52.462;10.846;2022-10-17T05:24:36;101210;;;
74485;BMP280;62942;52.462;10.846;2022-10-17T05:25:46;101210;;;
74485;BMP280;62942;52.462;10.846;2022-10-17T05:26:48;101210;;;
74485;BMP280;62942;52.462;10.846;2022-10-17T05:27:56;101210;;;
74485;BMP280;62942;52.462;10.846;2022-10-17T05:29:06;101210;;;
74485;BMP280;62942;52.462;10.846;2022-10-17T05:30:16;101210;;;
74485;BMP280;62942;52.462;10.846;2022-10-17T05:31:26;101210;;;
74485;BMP280;62942;52.462;10.846;2022-10-17T05:32:37;101200;;;
74485;BMP280;62942;52.462;10.846;2022-10-17T05:33:46;101210;;;
74485;BMP280;62942;52.462;10.846;2022-10-17T05:34:56;101200;;;
74485;BMP280;62942;52.462;10.846;2022-10-17T05:36:06;101210;;;
74485;BMP280;62942;52.462;10.846;2022-10-17T05:37:06;101210;;;
74485;BMP280;62942;52.462;10.846;2022-10-17T05:38:16;101210;;;
74485;BMP280;62942;52.462;10.846;2022-10-17T05:39:26;101210;;;
74485;BMP280;62942;52.462;10.846;2022-10-17T05:40:26;101210;;;
74485;BMP280;62942;52.462;10.846;2022-10-17T05:41:36;101200;;;
74485;BMP280;62942;52.462;10.846;2022-10-17T05:42:36;101200;;;
74485;BMP280;62942;52.462;10.846;2022-10-17T05:43:46;101200;;;
74485;BMP280;62942;52.462;10.846;2022-10-17T05:44:56;101200;;;
74485;BMP280;62942;52.462;10.846;2022-10-17T05:46:06;101200;;;
74485;BMP280;62942;52.462;10.846;2022-10-17T05:47:06;101210;;;
74485;BMP280;62942;52.462;10.846;2022-10-17T05:48:16;101200;;;
74485;BMP280;62942;52.462;10.846;2022-10-17T05:49:26;101200;;;
74485;BMP280;62942;52.462;10.846;2022-10-17T05:50:36;101210;;;
74485;BMP280;62942;52.462;10.846;2022-10-17T05:51:46;101210;;;
74485;BMP280;62942;52.462;10.846;2022-10-17T05:52:56;101210;;;
74485;BMP280;62942;52.462;10.846;2022-10-17T05:53:56;101210;;;
74485;BMP280;62942;52.462;10.846;2022-10-17T05:54:56;101210;;;
74485;BMP280;62942;52.462;10.846;2022-10-17T05:56:07;101210;;;
74485;BMP280;62942;52.462;10.846;2022-10-17T05:57:06;101220;;;
74485;BMP280;62942;52.462;10.846;2022-10-17T05:58:16;101220;;;
74485;BMP280;62942;52.462;10.846;2022-10-17T05:59:26;101220;;;
74485;BMP280;62942;52.462;10.846;2022-10-17T06:00:26;101220;;;
74485;BMP280;62942;52.462;10.846;2022-10-17T06:01:36;101220;;;
74485;BMP280;62942;52.462;10.846;2022-10-17T06:02:36;101220;;;
74485;BMP280;62942;52.462;10.846;2022-10-17T06:03:46;101210;;;
74485;BMP280;62942;52.462;10.846;2022-10-17T06:04:46;101220;;;
74485;BMP280;62942;52.462;10.846;2022-10-17T06:05:46;101210;;;
74485;BMP280;62942;52.462;10.846;2022-10-17T06:06:56;101220;;;
74485;BMP280;62942;52.462;10.846;2022-10-17T06:07:56;101220;;;
74485;BMP280;62942;52.462;10.846;2022-10-17T06:09:06;101220;;;
74485;BMP280;62942;52.462;10.846;2022-10-17T06:10:06;101220;;;
74485;BMP280;62942;52.462;10.846;2022-10-17T06:11:16;101220;;;
74485;BMP280;62942;52.462;10.846;2022-10-17T06:12:16;101220;;;
74485;BMP280;62942;52.462;10.846;2022-10-17T06:13:16;101220;;;
74485;BMP280;62942;52.462;10.846;2022-10-17T06:14:26;101220;;;
74485;BMP280;62942;52.462;10.846;2022-10-17T06:15:26;101220;;;
74485;BMP280;62942;52.462;10.846;2022-10-17T06:16:36;101230;;;
74485;BMP280;62942;52.462;10.846;2022-10-17T06:17:36;101230;;;
74485;BMP280;62942;52.462;10.846;2022-10-17T06:18:46;101230;;;
74485;BMP280;62942;52.462;10.846;2022-10-17T06:19:46;101230;;;
74485;BMP280;62942;52.462;10.846;2022-10-17T06:21:00;101230;;;
74485;BMP280;62942;52.462;10.846;2022-10-17T06:22:06;101230;;;
74485;BMP280;62942;52.462;10.846;2022-10-17T06:23:06;101240;;;
74485;BMP280;62942;52.462;10.846;2022-10-17T06:24:16;101240;;;
74485;BMP280;62942;52.462;10.846;2022-10-17T06:25:26;101240;;;
74485;BMP280;62942;52.462;10.846;2022-10-17T06:26:26;101240;;;
74485;BMP280;62942;52.462;10.846;2022-10-17T06:27:36;101240;;;
74485;BMP280;62942;52.462;10.846;2022-10-17T06:28:46;101240;;;
74485;BMP280;62942;52.462;10.846;2022-10-17T06:29:46;101250;;;
74485;BMP280;62942;52.462;10.846;2022-10-17T06:30:56;101250;;;
74485;BMP280;62942;52.462;10.846;2022-10-17T06:32:06;101260;;;
74485;BMP280;62942;52.462;10.846;2022-10-17T06:33:06;101250;;;
74485;BMP280;62942;52.462;10.846;2022-10-17T06:34:16;101250;;;
74485;BMP280;62942;52.462;10.846;2022-10-17T06:35:26;101260;;;
74485;BMP280;62942;52.462;10.846;2022-10-17T06:36:26;101250;;;
74485;BMP280;62942;52.462;10.846;2022-10-17T06:37:36;101250;;;
74485;BMP280;62942;52.462;10.846;2022-10-17T06:38:46;101250;;;
74485;BMP280;62942;52.462;10.846;2022-10-17T06:39:56;101260;;;
74485;BMP280;62942;52.462;10.846;2022-10-17T06:41:07;101250;;;
74485;BMP280;62942;52.462;10.846;2022-10-17T06:42:06;101250;;;
74485;BMP280;62942;52.462;10.846;2022-10-17T06:43:06;101250;;;
74485;BMP280;62942;52.462;10.846;2022-10-17T06:44:16;101250;;;
74485;BMP280;62942;52.462;10.846;2022-10-17T06:45:16;101250;;;
74485;BMP280;62942;52.462;10.846;2022-10-17T06:46:26;101250;;;
74485;BMP280;62942;52.462;10.846;2022-10-17T06:47:36;101260;;;
74485;BMP280;62942;52.462;10.846;2022-10-17T06:48:36;101260;;;
74485;BMP280;62942;52.462;10.846;2022-10-17T06:49:46;101260;;;
74485;BMP280;62942;52.462;10.846;2022-10-17T06:50:46;101270;;;
74485;BMP280;62942;52.462;10.846;2022-10-17T06:51:56;101260;;;
74485;BMP280;62942;52.462;10.846;2022-10-17T06:53:06;101260;;;
74485;BMP280;62942;52.462;10.846;2022-10-17T06:54:16;101260;;;
74485;BMP280;62942;52.462;10.846;2022-10-17T06:55:26;101260;;;
74485;BMP280;62942;52.462;10.846;2022-10-17T06:56:36;101260;;;
74485;BMP280;62942;52.462;10.846;2022-10-17T06:57:36;101260;;;
74485;BMP280;62942;52.462;10.846;2022-10-17T06:58:46;101260;;;
74485;BMP280;62942;52.462;10.846;2022-10-17T06:59:46;101270;;;
74485;BMP280;62942;52.462;10.846;2022-10-17T07:00:57;101260;;;
74485;BMP280;62942;52.462;10.846;2022-10-17T07:01:56;101260;;;
74485;BMP280;62942;52.462;10.846;2022-10-17T07:03:06;101260;;;
74485;BMP280;62942;52.462;10.846;2022-10-17T07:04:16;101270;;;